createdAt,value
2022-08-07T00:02:40.016Z,52.40
2022-08-07T00:04:52.437Z,53.27
2022-08-07T00:07:20.632Z,53.50
2022-08-07T00:09:59.187Z,53.23
2022-08-07T00:12:33.885Z,52.68
2022-08-07T00:15:00.232Z,52.41
2022-08-07T00:17:26.786Z,51.96
2022-08-07T00:20:01.104Z,52.65
2022-08-07T00:22:35.315Z,52.12
2022-08-07T00:25:02.724Z,52.20
2022-08-07T00:27:52.778Z,52.98
2022-08-07T00:30:21.690Z,52.42
2022-08-07T00:32:54.209Z,52.69
2022-08-07T00:35:21.443Z,52.44
2022-08-07T00:37:49.626Z,52.14
2022-08-07T00:40:17.228Z,53.19
2022-08-07T00:43:03.595Z,52.41
2022-08-07T00:45:36.449Z,53.02
2022-08-07T00:48:10.420Z,53.46
2022-08-07T00:50:50.483Z,52.79
2022-08-07T00:53:20.134Z,52.74
2022-08-07T00:56:00.485Z,53.28
2022-08-07T00:58:28.833Z,53.07
2022-08-07T01:00:55.286Z,53.56
2022-08-07T01:03:25.487Z,52.92
2022-08-07T01:06:08.008Z,52.36
2022-08-07T01:08:34.582Z,52.77
2022-08-07T01:11:00.936Z,52.52
2022-08-07T01:13:55.906Z,53.29
2022-08-07T01:16:29.988Z,52.91
2022-08-07T01:18:57.134Z,54.03
2022-08-07T01:21:25.888Z,53.52
2022-08-07T01:23:52.596Z,54.11
2022-08-07T01:26:20.249Z,54.33
2022-08-07T01:28:48.214Z,55.34
2022-08-07T01:31:15.312Z,53.88
2022-08-07T01:33:54.034Z,53.81
2022-08-07T01:36:22.753Z,54.06
2022-08-07T01:39:00.592Z,53.78
2022-08-07T01:41:27.064Z,53.57
2022-08-07T01:43:53.481Z,54.25
2022-08-07T01:46:21.410Z,53.85
2022-08-07T01:48:47.883Z,55.57
2022-08-07T01:51:24.351Z,55.29
2022-08-07T01:54:12.414Z,54.81
2022-08-07T01:56:49.308Z,54.69
2022-08-07T01:59:16.049Z,56.01
2022-08-07T02:02:01.607Z,55.36
2022-08-07T02:04:28.888Z,55.79
2022-08-07T02:06:56.826Z,56.34
2022-08-07T02:09:52.461Z,56.29
2022-08-07T02:12:09.566Z,55.61
2022-08-07T02:14:40.757Z,56.01
2022-08-07T02:17:07.667Z,55.21
2022-08-07T02:20:05.247Z,55.06
2022-08-07T02:22:20.377Z,56.64
2022-08-07T02:24:46.790Z,56.44
2022-08-07T02:27:14.929Z,55.63
2022-08-07T02:29:48.668Z,56.49
2022-08-07T02:32:23.379Z,56.79
2022-08-07T02:34:51.406Z,56.02
2022-08-07T02:37:18.706Z,56.03
2022-08-07T02:40:02.008Z,56.12
2022-08-07T02:42:31.903Z,56.30
2022-08-07T02:44:58.516Z,57.31
2022-08-07T02:47:24.924Z,57.13
2022-08-07T02:49:58.592Z,57.01
2022-08-07T02:52:32.079Z,56.86
2022-08-07T02:54:58.640Z,57.74
2022-08-07T02:57:28.695Z,57.81
2022-08-07T03:00:01.110Z,57.43
2022-08-07T03:02:31.559Z,57.54
2022-08-07T03:04:58.798Z,57.42
2022-08-07T03:08:04.679Z,57.64
2022-08-07T03:10:12.347Z,57.49
2022-08-07T03:12:40.810Z,56.94
2022-08-07T03:15:07.715Z,57.22
2022-08-07T03:17:36.393Z,57.94
2022-08-07T03:20:21.363Z,57.89
2022-08-07T03:22:50.362Z,57.22
2022-08-07T03:25:16.796Z,56.42
2022-08-07T03:27:59.221Z,56.57
2022-08-07T03:30:26.322Z,56.38
2022-08-07T03:32:58.872Z,55.94
2022-08-07T03:35:27.303Z,56.40
2022-08-07T03:38:10.543Z,56.48
2022-08-07T03:40:39.638Z,56.93
2022-08-07T03:43:14.380Z,56.36
2022-08-07T03:45:43.710Z,55.65
2022-08-07T03:48:14.121Z,55.76
2022-08-07T03:50:52.121Z,55.30
2022-08-07T03:53:30.278Z,55.58
2022-08-07T03:56:10.189Z,55.64
2022-08-07T03:59:07.098Z,54.73
2022-08-07T04:01:26.538Z,54.51
2022-08-07T04:03:55.457Z,54.38
2022-08-07T04:06:37.594Z,54.49
2022-08-07T04:09:04.902Z,54.28
2022-08-07T04:12:23.500Z,54.55
2022-08-07T04:14:38.937Z,54.28
2022-08-07T04:17:05.257Z,54.32
2022-08-07T04:19:52.440Z,54.24
2022-08-07T04:22:22.988Z,54.66
2022-08-07T04:24:49.473Z,55.00
2022-08-07T04:27:35.950Z,54.39
2022-08-07T04:30:04.425Z,54.29
2022-08-07T04:32:34.281Z,54.46
2022-08-07T04:35:01.454Z,54.49
2022-08-07T04:37:30.413Z,54.65
2022-08-07T04:40:17.626Z,54.75
2022-08-07T04:42:46.184Z,54.94
2022-08-07T04:45:44.394Z,54.68
2022-08-07T04:48:10.916Z,54.22
2022-08-07T04:50:37.443Z,54.65
2022-08-07T04:53:06.036Z,54.44
2022-08-07T04:58:11.093Z,54.89
2022-08-07T04:58:32.072Z,54.67
2022-08-07T05:01:13.539Z,55.19
2022-08-07T05:03:59.877Z,55.23
2022-08-07T05:06:28.087Z,55.29
2022-08-07T05:09:00.958Z,54.96
2022-08-07T05:11:56.837Z,54.04
2022-08-07T05:14:53.190Z,54.97
2022-08-07T05:17:01.123Z,54.67
2022-08-07T05:19:44.143Z,54.45
2022-08-07T05:22:11.625Z,54.98
2022-08-07T05:24:40.688Z,55.03
2022-08-07T05:27:07.178Z,55.47
2022-08-07T05:29:53.724Z,55.70
2022-08-07T05:32:20.169Z,54.82
2022-08-07T05:34:48.151Z,54.77
2022-08-07T05:37:16.205Z,55.09
2022-08-07T05:40:13.850Z,54.65
2022-08-07T05:42:39.293Z,54.84
2022-08-07T05:45:25.783Z,55.04
2022-08-07T05:48:02.094Z,55.82
2022-08-07T05:50:29.180Z,55.55
2022-08-07T05:52:55.776Z,54.67
2022-08-07T05:55:22.111Z,54.63
2022-08-07T05:57:49.315Z,54.65
2022-08-07T06:00:19.570Z,54.08
2022-08-07T06:02:46.983Z,53.93
2022-08-07T06:05:15.589Z,53.14
2022-08-07T06:08:13.284Z,53.29
2022-08-07T06:10:28.732Z,52.70
2022-08-07T06:12:55.067Z,52.21
2022-08-07T06:15:21.419Z,52.60
2022-08-07T06:17:53.742Z,52.12
2022-08-07T06:20:31.838Z,51.67
2022-08-07T06:23:46.765Z,52.21
2022-08-07T06:25:57.028Z,51.55
2022-08-07T06:28:27.577Z,51.97
2022-08-07T06:30:58.144Z,51.27
2022-08-07T06:33:24.938Z,51.11
2022-08-07T06:36:12.415Z,50.98
2022-08-07T06:38:37.751Z,50.53
2022-08-07T06:41:04.441Z,50.57
2022-08-07T06:43:39.602Z,50.56
2022-08-07T06:46:06.522Z,49.87
2022-08-07T06:48:38.794Z,50.53
2022-08-07T06:51:09.447Z,49.97
2022-08-07T06:55:29.106Z,49.93
2022-08-07T06:56:25.685Z,49.68
2022-08-07T07:00:13.312Z,49.92
2022-08-07T07:01:48.933Z,50.25
2022-08-07T07:04:32.474Z,51.49
2022-08-07T07:07:00.915Z,50.81
2022-08-07T07:09:31.141Z,50.34
2022-08-07T07:12:07.747Z,49.60
2022-08-07T07:14:40.335Z,49.88
2022-08-07T07:17:06.966Z,49.76
2022-08-07T07:19:58.031Z,49.54
2022-08-07T07:22:39.810Z,49.11
2022-08-07T07:26:31.696Z,48.14
2022-08-07T07:28:02.698Z,48.20
2022-08-07T07:30:37.992Z,48.29
2022-08-07T07:33:06.313Z,47.28
2022-08-07T07:35:44.061Z,47.12
2022-08-07T07:38:20.576Z,47.85
2022-08-07T07:40:47.881Z,47.17
2022-08-07T07:43:18.612Z,46.37
2022-08-07T07:46:37.201Z,46.19
2022-08-07T07:48:35.833Z,45.72
2022-08-07T07:51:02.738Z,45.72
2022-08-07T07:53:34.947Z,45.62
2022-08-07T07:56:01.426Z,45.86
2022-08-07T07:58:30.583Z,45.88
2022-08-07T08:02:05.182Z,45.75
2022-08-07T08:04:10.961Z,45.48
2022-08-07T08:06:36.217Z,46.28
2022-08-07T08:09:03.019Z,45.86
2022-08-07T08:12:00.120Z,45.26
2022-08-07T08:14:15.657Z,45.44
2022-08-07T08:16:42.261Z,45.22
2022-08-07T08:20:15.682Z,45.03
2022-08-07T08:22:03.895Z,45.05
2022-08-07T08:24:44.967Z,44.95
2022-08-07T08:27:17.375Z,44.13
2022-08-07T08:29:55.584Z,44.77
2022-08-07T08:32:25.030Z,44.92
2022-08-07T08:34:52.010Z,44.67
2022-08-07T08:37:59.606Z,44.95
2022-08-07T08:40:04.802Z,44.68
2022-08-07T08:42:41.340Z,44.75
2022-08-07T08:45:12.998Z,44.39
2022-08-07T08:47:51.907Z,44.03
2022-08-07T08:50:28.624Z,43.84
2022-08-07T08:53:05.734Z,44.29
2022-08-07T08:55:54.413Z,43.79
2022-08-07T08:58:28.449Z,44.21
2022-08-07T09:00:58.339Z,44.00
2022-08-07T09:03:47.573Z,43.54
2022-08-07T09:06:14.534Z,43.41
2022-08-07T09:08:41.788Z,43.30
2022-08-07T09:11:10.910Z,43.05
2022-08-07T09:13:40.450Z,43.17
2022-08-07T09:16:20.289Z,42.93
2022-08-07T09:18:53.132Z,42.72
2022-08-07T09:21:57.885Z,43.06
2022-08-07T09:24:30.925Z,43.18
2022-08-07T09:26:57.347Z,43.10
2022-08-07T09:30:03.367Z,43.50
2022-08-07T09:32:17.222Z,43.26
2022-08-07T09:34:45.091Z,43.26
2022-08-07T09:37:20.445Z,43.21
2022-08-07T09:40:02.834Z,43.10
2022-08-07T09:42:33.756Z,42.49
2022-08-07T09:46:28.547Z,42.42
2022-08-07T09:47:59.591Z,42.50
2022-08-07T09:50:30.317Z,42.17
2022-08-07T09:52:56.713Z,42.73
2022-08-07T09:55:36.827Z,42.58
2022-08-07T09:58:09.481Z,42.55
2022-08-07T10:00:41.038Z,43.13
2022-08-07T10:04:05.163Z,42.66
2022-08-07T10:06:00.030Z,41.81
2022-08-07T10:08:28.999Z,41.13
2022-08-07T10:11:16.802Z,42.22
2022-08-07T10:14:01.027Z,41.79
2022-08-07T10:16:31.382Z,42.62
2022-08-07T10:19:00.792Z,42.48
2022-08-07T10:22:01.184Z,42.16
2022-08-07T10:24:18.423Z,42.97
2022-08-07T10:26:53.251Z,41.12
2022-08-07T10:29:19.829Z,42.02
2022-08-07T10:31:46.157Z,42.65
2022-08-07T10:34:27.339Z,41.72
2022-08-07T10:37:04.121Z,42.10
2022-08-07T10:39:41.942Z,41.80
2022-08-07T10:42:21.310Z,42.00
2022-08-07T10:44:57.769Z,41.65
2022-08-07T10:47:26.577Z,41.54
2022-08-07T10:50:00.453Z,39.99
2022-08-07T10:52:31.939Z,40.30
2022-08-07T10:55:21.268Z,40.50
2022-08-07T10:57:56.278Z,40.71
2022-08-07T11:00:36.780Z,40.64
2022-08-07T11:03:11.367Z,40.78
2022-08-07T11:05:49.207Z,41.31
2022-08-07T11:08:17.664Z,41.39
2022-08-07T11:10:49.990Z,41.59
2022-08-07T11:14:42.402Z,41.12
2022-08-07T11:16:11.006Z,41.21
2022-08-07T11:18:40.146Z,41.05
2022-08-07T11:21:10.365Z,40.16
2022-08-07T11:23:40.562Z,39.35
2022-08-07T11:26:06.913Z,40.13
2022-08-07T11:28:33.252Z,40.21
2022-08-07T11:30:59.582Z,40.02
2022-08-07T11:33:59.771Z,41.00
2022-08-07T11:36:12.421Z,40.95
2022-08-07T11:38:42.456Z,40.81
2022-08-07T11:41:22.406Z,40.57
2022-08-07T11:44:12.162Z,39.69
2022-08-07T11:46:39.323Z,39.89
2022-08-07T11:49:28.611Z,39.77
2022-08-07T11:51:52.048Z,38.95
2022-08-07T11:54:22.124Z,39.11
2022-08-07T11:56:53.036Z,38.99
2022-08-07T12:00:10.211Z,38.90
2022-08-07T12:02:10.180Z,39.23
2022-08-07T12:04:46.834Z,39.07
2022-08-07T12:07:20.346Z,39.07
2022-08-07T12:09:53.333Z,39.30
2022-08-07T12:12:19.657Z,39.59
2022-08-07T12:14:46.062Z,38.36
2022-08-07T12:17:22.192Z,39.68
2022-08-07T12:20:02.634Z,40.28
2022-08-07T12:22:38.899Z,39.60
2022-08-07T12:26:03.522Z,40.49
2022-08-07T12:28:09.343Z,40.39
2022-08-07T12:30:36.788Z,40.03
2022-08-07T12:33:18.632Z,40.17
2022-08-07T12:35:48.312Z,40.57
2022-08-07T12:38:38.623Z,40.28
2022-08-07T12:41:10.121Z,39.81
2022-08-07T12:44:02.791Z,39.76
2022-08-07T12:46:26.277Z,41.05
2022-08-07T12:48:58.974Z,40.78
2022-08-07T12:51:51.523Z,40.76
2022-08-07T12:54:37.379Z,40.72
2022-08-07T12:57:09.643Z,40.42
2022-08-07T12:59:54.712Z,40.59
2022-08-07T13:02:22.135Z,40.67
2022-08-07T13:05:01.666Z,40.66
2022-08-07T13:08:12.884Z,40.82
2022-08-07T13:10:37.075Z,40.49
2022-08-07T13:13:06.939Z,39.98
2022-08-07T13:15:33.277Z,40.65
2022-08-07T13:17:59.686Z,40.52
2022-08-07T13:20:27.496Z,40.38
2022-08-07T13:22:54.230Z,40.27
2022-08-07T13:25:28.879Z,40.88
2022-08-07T13:28:12.604Z,40.83
2022-08-07T13:30:48.676Z,40.78
2022-08-07T13:34:31.877Z,40.88
2022-08-07T13:36:07.892Z,40.58
2022-08-07T13:38:34.254Z,40.82
2022-08-07T13:41:03.515Z,41.03
2022-08-07T13:43:29.862Z,40.60
2022-08-07T13:46:11.976Z,40.65
2022-08-07T13:48:52.011Z,40.88
2022-08-07T13:52:22.682Z,40.85
2022-08-07T13:54:16.373Z,41.19
2022-08-07T13:56:52.173Z,41.02
2022-08-07T13:59:22.313Z,41.00
2022-08-07T14:02:04.088Z,41.69
2022-08-07T14:04:36.190Z,41.37
2022-08-07T14:07:06.543Z,41.45
2022-08-07T14:10:01.534Z,41.34
2022-08-07T14:12:28.062Z,42.02
2022-08-07T14:14:57.378Z,42.10
2022-08-07T14:18:13.598Z,41.67
2022-08-07T14:20:43.229Z,41.70
2022-08-07T14:23:02.654Z,41.34
2022-08-07T14:25:39.582Z,40.42
2022-08-07T14:28:13.778Z,40.93
2022-08-07T14:30:40.577Z,41.16
2022-08-07T14:33:07.161Z,40.77
2022-08-07T14:35:42.945Z,40.52
2022-08-07T14:38:26.588Z,40.31
2022-08-07T14:40:57.338Z,40.45
2022-08-07T14:43:57.141Z,40.32
2022-08-07T14:46:13.551Z,40.85
2022-08-07T14:48:48.449Z,40.33
2022-08-07T14:51:17.238Z,40.70
2022-08-07T14:56:30.591Z,39.99
2022-08-07T14:58:56.972Z,39.77
2022-08-07T15:01:26.127Z,39.84
2022-08-07T15:04:08.650Z,38.37
2022-08-07T15:06:37.686Z,39.77
2022-08-07T15:09:04.026Z,40.03
2022-08-07T15:12:01.254Z,39.64
2022-08-07T15:14:30.679Z,40.24
2022-08-07T15:17:00.632Z,40.25
2022-08-07T15:22:33.473Z,41.29
2022-08-07T15:25:17.673Z,41.53
2022-08-07T15:28:32.905Z,40.86
2022-08-07T15:31:05.166Z,41.07
2022-08-07T15:36:10.679Z,40.50
2022-08-07T15:38:51.159Z,40.79
2022-08-07T15:41:23.696Z,40.80
2022-08-07T15:44:04.970Z,39.92
2022-08-07T15:46:38.584Z,40.03
2022-08-07T15:49:16.470Z,40.60
2022-08-07T15:54:24.277Z,40.60
2022-08-07T15:56:52.774Z,41.05
2022-08-07T15:59:19.148Z,40.56
2022-08-07T16:02:02.446Z,39.89
2022-08-07T16:04:29.155Z,39.62
2022-08-07T16:06:58.421Z,40.89
2022-08-07T16:09:41.162Z,41.18
2022-08-07T16:12:12.154Z,40.73
2022-08-07T16:14:38.784Z,39.99
2022-08-07T16:17:14.989Z,40.55
2022-08-07T16:19:59.072Z,40.69
2022-08-07T16:22:33.907Z,41.26
2022-08-07T16:25:02.345Z,40.77
2022-08-07T16:27:40.685Z,40.58
2022-08-07T16:30:30.317Z,40.70
2022-08-07T16:32:54.945Z,41.26
2022-08-07T16:35:52.351Z,41.55
2022-08-07T16:38:09.778Z,41.96
2022-08-07T16:40:56.966Z,41.73
2022-08-07T16:43:24.422Z,41.48
2022-08-07T16:47:03.484Z,41.31
2022-08-07T16:50:26.604Z,41.60
2022-08-07T16:52:01.847Z,41.40
2022-08-07T16:54:33.067Z,41.56
2022-08-07T16:57:00.916Z,41.30
2022-08-07T16:59:46.217Z,41.64
2022-08-07T17:02:13.507Z,41.69
2022-08-07T17:04:59.851Z,41.79
2022-08-07T17:07:28.469Z,41.92
2022-08-07T17:10:33.040Z,41.75
2022-08-07T17:13:01.070Z,41.78
2022-08-07T17:15:44.279Z,41.66
2022-08-07T17:18:16.126Z,41.79
2022-08-07T17:20:42.688Z,41.66
2022-08-07T17:23:15.874Z,41.86
2022-08-07T17:25:47.369Z,41.68
2022-08-07T17:28:17.687Z,41.68
2022-08-07T17:30:58.033Z,42.35
2022-08-07T17:34:08.791Z,42.25
2022-08-07T17:36:13.633Z,42.42
2022-08-07T17:38:47.059Z,42.40
2022-08-07T17:42:03.446Z,42.72
2022-08-07T17:44:06.515Z,42.97
2022-08-07T17:46:37.020Z,43.20
2022-08-07T17:49:09.148Z,43.16
2022-08-07T17:52:00.895Z,43.36
2022-08-07T17:54:29.571Z,43.52
2022-08-07T17:57:18.689Z,43.86
2022-08-07T17:59:45.728Z,43.78
2022-08-07T18:02:17.053Z,43.67
2022-08-07T18:04:49.671Z,44.37
2022-08-07T18:07:20.199Z,44.23
2022-08-07T18:10:07.355Z,44.26
2022-08-07T18:12:36.691Z,44.45
2022-08-07T18:15:08.371Z,44.59
2022-08-07T18:18:47.450Z,44.88
2022-08-07T18:21:11.607Z,44.76
2022-08-07T18:23:42.768Z,45.18
2022-08-07T18:26:01.328Z,45.64
2022-08-07T18:28:33.999Z,45.52
2022-08-07T18:31:01.095Z,45.83
2022-08-07T18:33:27.563Z,45.73
2022-08-07T18:35:55.805Z,45.83
2022-08-07T18:38:57.524Z,46.15
2022-08-07T18:41:17.140Z,46.67
2022-08-07T18:43:48.913Z,47.24
2022-08-07T18:46:25.081Z,47.18
2022-08-07T18:50:19.274Z,46.71
2022-08-07T18:52:33.560Z,47.44
2022-08-07T18:54:27.897Z,47.68
2022-08-07T18:57:29.478Z,48.01
2022-08-07T18:59:59.421Z,47.88
2022-08-07T19:02:34.345Z,47.75
2022-08-07T19:05:10.671Z,48.23
2022-08-07T19:07:51.726Z,48.62
2022-08-07T19:10:24.014Z,48.67
2022-08-07T19:12:59.546Z,48.76
2022-08-07T19:16:05.959Z,48.50
2022-08-07T19:18:34.479Z,48.94
2022-08-07T19:21:08.972Z,48.81
2022-08-07T19:23:58.061Z,48.76
2022-08-07T19:26:29.104Z,49.06
2022-08-07T19:30:56.435Z,49.00
2022-08-07T19:32:10.808Z,49.45
2022-08-07T19:34:34.304Z,49.00
2022-08-07T19:37:09.831Z,49.34
2022-08-07T19:39:57.782Z,49.50
2022-08-07T19:42:30.405Z,49.75
2022-08-07T19:44:58.957Z,49.92
2022-08-07T19:47:27.737Z,49.83
2022-08-07T19:49:58.346Z,50.21
2022-08-07T19:52:30.283Z,50.05
2022-08-07T19:54:57.712Z,49.58
2022-08-07T19:58:02.492Z,49.37
2022-08-07T20:00:11.334Z,49.15
2022-08-07T20:02:54.510Z,49.34
2022-08-07T20:05:21.359Z,49.44
2022-08-07T20:07:51.055Z,49.88
2022-08-07T20:10:35.351Z,49.58
2022-08-07T20:13:06.059Z,50.56
2022-08-07T20:15:37.080Z,50.07
2022-08-07T20:18:05.612Z,50.14
2022-08-07T20:20:32.095Z,50.05
2022-08-07T20:22:59.106Z,50.04
2022-08-07T20:25:27.824Z,50.21
2022-08-07T20:27:58.537Z,50.07
2022-08-07T20:30:29.864Z,50.53
2022-08-07T20:32:57.381Z,50.61
2022-08-07T20:35:27.239Z,50.93
2022-08-07T20:37:58.379Z,50.61
2022-08-07T20:40:33.367Z,50.47
2022-08-07T20:43:01.068Z,51.08
2022-08-07T20:45:33.696Z,50.58
2022-08-07T20:48:28.963Z,50.99
2022-08-07T20:50:59.636Z,51.25
2022-08-07T20:54:03.433Z,51.24
2022-08-07T20:56:12.650Z,51.81
2022-08-07T20:58:42.629Z,51.87
2022-08-07T21:01:19.479Z,52.02
2022-08-07T21:04:07.212Z,52.16
2022-08-07T21:06:33.253Z,51.85
2022-08-07T21:09:00.008Z,51.76
2022-08-07T21:11:40.360Z,51.72
2022-08-07T21:14:31.973Z,51.43
2022-08-07T21:18:00.614Z,51.69
2022-08-07T21:19:51.497Z,51.51
2022-08-07T21:22:33.398Z,52.20
2022-08-07T21:25:00.033Z,51.98
2022-08-07T21:27:40.031Z,52.24
2022-08-07T21:30:14.539Z,51.74
2022-08-07T21:32:50.190Z,52.41
2022-08-07T21:35:18.537Z,52.33
2022-08-07T21:38:04.979Z,52.14
2022-08-07T21:40:36.050Z,52.09
2022-08-07T21:43:06.412Z,51.64
2022-08-07T21:46:05.437Z,52.12
2022-08-07T21:48:28.452Z,52.72
2022-08-07T21:50:59.875Z,52.91
2022-08-07T21:53:28.250Z,52.53
2022-08-07T21:55:55.596Z,52.05
2022-08-07T21:58:30.459Z,52.17
2022-08-07T22:01:00.182Z,52.30
2022-08-07T22:03:31.072Z,52.10
2022-08-07T22:05:59.054Z,52.12
2022-08-07T22:08:25.621Z,52.07
2022-08-07T22:10:52.133Z,52.04
2022-08-07T22:13:23.904Z,51.98
2022-08-07T22:16:44.837Z,52.06
2022-08-07T22:18:38.522Z,51.93
2022-08-07T22:21:07.467Z,52.00
2022-08-07T22:23:40.529Z,51.95
2022-08-07T22:26:07.676Z,52.12
2022-08-07T22:28:35.416Z,52.25
2022-08-07T22:31:04.906Z,52.08
2022-08-07T22:33:51.009Z,52.00
2022-08-07T22:36:18.460Z,52.00
2022-08-07T22:38:48.495Z,52.60
2022-08-07T22:41:14.966Z,52.59
2022-08-07T22:43:41.461Z,52.60
2022-08-07T22:46:56.052Z,53.00
2022-08-07T22:49:06.531Z,53.21
2022-08-07T22:51:36.761Z,53.27
2022-08-07T22:54:06.453Z,52.87
2022-08-07T22:56:37.386Z,52.67
2022-08-07T22:59:05.009Z,52.91
2022-08-07T23:01:41.916Z,53.82
2022-08-07T23:04:16.256Z,52.87
2022-08-07T23:06:42.975Z,52.33
2022-08-07T23:10:04.946Z,52.23
2022-08-07T23:12:05.102Z,52.39
2022-08-07T23:14:32.156Z,52.38
2022-08-07T23:16:58.693Z,53.13
2022-08-07T23:19:48.288Z,52.93
2022-08-07T23:22:12.732Z,52.53
2022-08-07T23:24:45.399Z,52.83
2022-08-07T23:27:13.336Z,53.54
2022-08-07T23:29:43.413Z,53.68
2022-08-07T23:34:19.740Z,53.34
2022-08-07T23:35:12.640Z,54.77
2022-08-07T23:38:01.278Z,54.90
2022-08-07T23:40:26.527Z,55.28
2022-08-07T23:42:53.967Z,55.49
2022-08-07T23:45:33.563Z,55.53
2022-08-07T23:48:07.992Z,55.64
2022-08-07T23:50:36.752Z,56.29
2022-08-07T23:53:06.395Z,56.48
2022-08-07T23:55:52.987Z,57.05
2022-08-07T23:58:24.104Z,56.61
